sensor_id;sensor_type;location;lat;lon;timestamp;P1;durP1;ratioP1;P2;durP2;ratioP2
21270;SDS011;10795;50.796;3.860;2022-10-22T00:01:04;12.40;;;2.00;;
21270;SDS011;10795;50.796;3.860;2022-10-22T00:03:30;7.65;;;1.67;;
21270;SDS011;10795;50.796;3.860;2022-10-22T00:05:56;10.77;;;2.05;;
21270;SDS011;10795;50.796;3.860;2022-10-22T00:08:22;8.27;;;1.95;;
21270;SDS011;10795;50.796;3.860;2022-10-22T00:10:47;7.03;;;1.70;;
21270;SDS011;10795;50.796;3.860;2022-10-22T00:13:13;6.78;;;1.42;;
21270;SDS011;10795;50.796;3.860;2022-10-22T00:15:39;8.95;;;1.55;;
21270;SDS011;10795;50.796;3.860;2022-10-22T00:18:05;10.48;;;2.13;;
21270;SDS011;10795;50.796;3.860;2022-10-22T00:20:31;9.32;;;2.05;;
21270;SDS011;10795;50.796;3.860;2022-10-22T00:22:57;7.82;;;2.17;;
21270;SDS011;10795;50.796;3.860;2022-10-22T00:25:23;8.95;;;1.90;;
21270;SDS011;10795;50.796;3.860;2022-10-22T00:27:49;9.02;;;1.90;;
21270;SDS011;10795;50.796;3.860;2022-10-22T00:30:15;9.02;;;2.22;;
21270;SDS011;10795;50.796;3.860;2022-10-22T00:32:40;6.13;;;2.30;;
21270;SDS011;10795;50.796;3.860;2022-10-22T00:35:06;11.07;;;2.30;;
21270;SDS011;10795;50.796;3.860;2022-10-22T00:37:32;7.55;;;1.70;;
21270;SDS011;10795;50.796;3.860;2022-10-22T00:39:58;4.53;;;2.03;;
21270;SDS011;10795;50.796;3.860;2022-10-22T00:42:24;6.60;;;2.05;;
21270;SDS011;10795;50.796;3.860;2022-10-22T00:47:34;6.07;;;1.75;;
21270;SDS011;10795;50.796;3.860;2022-10-22T00:50:17;5.22;;;1.77;;
21270;SDS011;10795;50.796;3.860;2022-10-22T00:52:44;8.13;;;2.33;;
21270;SDS011;10795;50.796;3.860;2022-10-22T00:55:10;7.22;;;2.35;;
21270;SDS011;10795;50.796;3.860;2022-10-22T00:57:38;10.82;;;2.17;;
21270;SDS011;10795;50.796;3.860;2022-10-22T01:00:05;9.23;;;2.10;;
21270;SDS011;10795;50.796;3.860;2022-10-22T01:02:31;7.80;;;1.98;;
21270;SDS011;10795;50.796;3.860;2022-10-22T01:04:57;7.38;;;2.22;;
21270;SDS011;10795;50.796;3.860;2022-10-22T01:07:23;5.75;;;2.10;;
21270;SDS011;10795;50.796;3.860;2022-10-22T01:15:21;10.98;;;2.30;;
21270;SDS011;10795;50.796;3.860;2022-10-22T01:18:05;11.63;;;2.65;;
21270;SDS011;10795;50.796;3.860;2022-10-22T01:23:12;8.23;;;2.35;;
21270;SDS011;10795;50.796;3.860;2022-10-22T01:26:05;10.85;;;2.00;;
21270;SDS011;10795;50.796;3.860;2022-10-22T01:31:28;12.18;;;2.20;;
21270;SDS011;10795;50.796;3.860;2022-10-22T01:34:02;12.15;;;2.20;;
21270;SDS011;10795;50.796;3.860;2022-10-22T01:36:29;11.82;;;2.22;;
21270;SDS011;10795;50.796;3.860;2022-10-22T01:38:57;6.38;;;1.98;;
21270;SDS011;10795;50.796;3.860;2022-10-22T01:41:26;11.43;;;2.40;;
21270;SDS011;10795;50.796;3.860;2022-10-22T01:43:53;19.35;;;2.95;;
21270;SDS011;10795;50.796;3.860;2022-10-22T01:46:20;7.65;;;2.00;;
21270;SDS011;10795;50.796;3.860;2022-10-22T01:51:43;7.55;;;2.22;;
21270;SDS011;10795;50.796;3.860;2022-10-22T01:54:35;4.57;;;1.85;;
21270;SDS011;10795;50.796;3.860;2022-10-22T01:57:21;10.13;;;2.20;;
21270;SDS011;10795;50.796;3.860;2022-10-22T02:00:12;9.20;;;2.63;;
21270;SDS011;10795;50.796;3.860;2022-10-22T02:07:43;8.40;;;1.88;;
21270;SDS011;10795;50.796;3.860;2022-10-22T02:10:13;4.40;;;1.83;;
21270;SDS011;10795;50.796;3.860;2022-10-22T02:12:42;6.68;;;1.65;;
21270;SDS011;10795;50.796;3.860;2022-10-22T02:15:10;10.20;;;2.00;;
21270;SDS011;10795;50.796;3.860;2022-10-22T02:17:38;6.97;;;1.65;;
21270;SDS011;10795;50.796;3.860;2022-10-22T02:20:17;8.87;;;2.07;;
21270;SDS011;10795;50.796;3.860;2022-10-22T02:22:46;8.30;;;2.10;;
21270;SDS011;10795;50.796;3.860;2022-10-22T02:25:12;11.93;;;2.80;;
21270;SDS011;10795;50.796;3.860;2022-10-22T02:27:45;8.20;;;2.22;;
21270;SDS011;10795;50.796;3.860;2022-10-22T02:30:18;8.70;;;2.00;;
21270;SDS011;10795;50.796;3.860;2022-10-22T02:35:32;8.85;;;2.15;;
21270;SDS011;10795;50.796;3.860;2022-10-22T02:38:00;8.55;;;1.83;;
21270;SDS011;10795;50.796;3.860;2022-10-22T02:40:26;10.85;;;2.20;;
21270;SDS011;10795;50.796;3.860;2022-10-22T02:42:54;5.20;;;1.75;;
21270;SDS011;10795;50.796;3.860;2022-10-22T02:45:20;7.60;;;1.88;;
21270;SDS011;10795;50.796;3.860;2022-10-22T02:47:46;10.25;;;2.20;;
21270;SDS011;10795;50.796;3.860;2022-10-22T02:50:12;5.90;;;1.83;;
21270;SDS011;10795;50.796;3.860;2022-10-22T02:52:38;9.05;;;1.85;;
21270;SDS011;10795;50.796;3.860;2022-10-22T02:55:04;9.02;;;2.10;;
21270;SDS011;10795;50.796;3.860;2022-10-22T02:57:30;9.52;;;1.88;;
21270;SDS011;10795;50.796;3.860;2022-10-22T02:59:56;10.75;;;2.25;;
21270;SDS011;10795;50.796;3.860;2022-10-22T03:02:22;8.55;;;2.10;;
21270;SDS011;10795;50.796;3.860;2022-10-22T03:04:48;8.05;;;1.67;;
21270;SDS011;10795;50.796;3.860;2022-10-22T03:07:14;7.82;;;2.13;;
21270;SDS011;10795;50.796;3.860;2022-10-22T03:09:39;6.10;;;2.10;;
21270;SDS011;10795;50.796;3.860;2022-10-22T03:12:05;6.85;;;1.70;;
21270;SDS011;10795;50.796;3.860;2022-10-22T03:14:33;8.48;;;1.75;;
21270;SDS011;10795;50.796;3.860;2022-10-22T03:16:59;15.98;;;3.20;;
21270;SDS011;10795;50.796;3.860;2022-10-22T03:19:25;9.70;;;2.25;;
21270;SDS011;10795;50.796;3.860;2022-10-22T03:21:55;7.43;;;1.88;;
21270;SDS011;10795;50.796;3.860;2022-10-22T03:24:34;5.97;;;2.08;;
21270;SDS011;10795;50.796;3.860;2022-10-22T03:27:02;7.28;;;1.90;;
21270;SDS011;10795;50.796;3.860;2022-10-22T03:29:28;7.75;;;2.00;;
21270;SDS011;10795;50.796;3.860;2022-10-22T03:31:57;5.73;;;2.07;;
21270;SDS011;10795;50.796;3.860;2022-10-22T03:34:23;10.07;;;2.20;;
21270;SDS011;10795;50.796;3.860;2022-10-22T03:36:48;6.75;;;1.92;;
21270;SDS011;10795;50.796;3.860;2022-10-22T03:39:16;7.07;;;2.00;;
21270;SDS011;10795;50.796;3.860;2022-10-22T03:41:43;11.88;;;2.17;;
21270;SDS011;10795;50.796;3.860;2022-10-22T03:44:10;8.30;;;1.88;;
21270;SDS011;10795;50.796;3.860;2022-10-22T03:46:37;9.93;;;2.40;;
21270;SDS011;10795;50.796;3.860;2022-10-22T03:49:02;8.88;;;2.08;;
21270;SDS011;10795;50.796;3.860;2022-10-22T03:51:28;12.52;;;1.88;;
21270;SDS011;10795;50.796;3.860;2022-10-22T03:53:54;10.90;;;2.13;;
21270;SDS011;10795;50.796;3.860;2022-10-22T03:56:20;10.10;;;1.88;;
21270;SDS011;10795;50.796;3.860;2022-10-22T03:58:46;10.02;;;2.28;;
21270;SDS011;10795;50.796;3.860;2022-10-22T04:01:12;8.43;;;1.80;;
21270;SDS011;10795;50.796;3.860;2022-10-22T04:03:38;10.57;;;2.03;;
21270;SDS011;10795;50.796;3.860;2022-10-22T04:06:08;14.80;;;1.90;;
21270;SDS011;10795;50.796;3.860;2022-10-22T04:08:37;10.73;;;2.08;;
21270;SDS011;10795;50.796;3.860;2022-10-22T04:11:03;11.30;;;2.20;;
21270;SDS011;10795;50.796;3.860;2022-10-22T04:13:29;10.40;;;1.90;;
21270;SDS011;10795;50.796;3.860;2022-10-22T04:15:55;10.02;;;1.90;;
21270;SDS011;10795;50.796;3.860;2022-10-22T04:18:30;9.90;;;1.85;;
21270;SDS011;10795;50.796;3.860;2022-10-22T04:20:55;10.02;;;2.03;;
21270;SDS011;10795;50.796;3.860;2022-10-22T04:23:21;11.57;;;2.17;;
21270;SDS011;10795;50.796;3.860;2022-10-22T04:25:47;13.20;;;1.98;;
21270;SDS011;10795;50.796;3.860;2022-10-22T04:28:13;11.25;;;2.30;;
21270;SDS011;10795;50.796;3.860;2022-10-22T04:30:38;5.85;;;1.70;;
21270;SDS011;10795;50.796;3.860;2022-10-22T04:33:04;5.45;;;1.80;;
21270;SDS011;10795;50.796;3.860;2022-10-22T04:35:30;7.07;;;1.40;;
21270;SDS011;10795;50.796;3.860;2022-10-22T04:37:56;9.75;;;2.72;;
21270;SDS011;10795;50.796;3.860;2022-10-22T04:40:21;4.72;;;1.55;;
21270;SDS011;10795;50.796;3.860;2022-10-22T04:42:47;7.35;;;1.92;;
21270;SDS011;10795;50.796;3.860;2022-10-22T04:45:13;8.93;;;1.55;;
21270;SDS011;10795;50.796;3.860;2022-10-22T04:47:39;11.10;;;2.30;;
21270;SDS011;10795;50.796;3.860;2022-10-22T04:50:06;6.90;;;1.73;;
21270;SDS011;10795;50.796;3.860;2022-10-22T04:52:32;9.57;;;2.10;;
21270;SDS011;10795;50.796;3.860;2022-10-22T04:54:58;10.70;;;2.13;;
21270;SDS011;10795;50.796;3.860;2022-10-22T04:57:25;6.45;;;1.67;;
21270;SDS011;10795;50.796;3.860;2022-10-22T04:59:54;8.45;;;1.80;;
21270;SDS011;10795;50.796;3.860;2022-10-22T05:02:20;11.65;;;2.20;;
21270;SDS011;10795;50.796;3.860;2022-10-22T05:04:45;12.15;;;2.22;;
21270;SDS011;10795;50.796;3.860;2022-10-22T05:07:11;10.52;;;1.77;;
21270;SDS011;10795;50.796;3.860;2022-10-22T05:09:38;9.57;;;2.08;;
21270;SDS011;10795;50.796;3.860;2022-10-22T05:12:03;9.60;;;1.83;;
21270;SDS011;10795;50.796;3.860;2022-10-22T05:14:30;7.95;;;1.88;;
21270;SDS011;10795;50.796;3.860;2022-10-22T05:16:57;6.35;;;1.90;;
21270;SDS011;10795;50.796;3.860;2022-10-22T05:19:24;10.52;;;2.03;;
21270;SDS011;10795;50.796;3.860;2022-10-22T05:21:52;10.05;;;1.70;;
21270;SDS011;10795;50.796;3.860;2022-10-22T05:24:20;8.27;;;1.73;;
21270;SDS011;10795;50.796;3.860;2022-10-22T05:26:49;13.48;;;1.90;;
21270;SDS011;10795;50.796;3.860;2022-10-22T05:29:16;9.27;;;1.48;;
21270;SDS011;10795;50.796;3.860;2022-10-22T05:31:42;6.80;;;1.85;;
21270;SDS011;10795;50.796;3.860;2022-10-22T05:34:08;5.75;;;1.45;;
21270;SDS011;10795;50.796;3.860;2022-10-22T05:36:34;9.15;;;2.00;;
21270;SDS011;10795;50.796;3.860;2022-10-22T05:39:00;9.02;;;2.00;;
21270;SDS011;10795;50.796;3.860;2022-10-22T05:41:26;7.57;;;1.77;;
21270;SDS011;10795;50.796;3.860;2022-10-22T05:43:55;8.70;;;1.90;;
21270;SDS011;10795;50.796;3.860;2022-10-22T05:46:24;9.65;;;1.70;;
21270;SDS011;10795;50.796;3.860;2022-10-22T05:49:02;9.27;;;1.63;;
21270;SDS011;10795;50.796;3.860;2022-10-22T05:51:30;8.30;;;1.95;;
21270;SDS011;10795;50.796;3.860;2022-10-22T05:53:58;12.05;;;2.08;;
21270;SDS011;10795;50.796;3.860;2022-10-22T05:56:25;8.43;;;1.67;;
21270;SDS011;10795;50.796;3.860;2022-10-22T05:58:53;6.65;;;1.92;;
21270;SDS011;10795;50.796;3.860;2022-10-22T06:01:20;9.80;;;2.00;;
21270;SDS011;10795;50.796;3.860;2022-10-22T06:03:52;10.40;;;2.08;;
21270;SDS011;10795;50.796;3.860;2022-10-22T06:06:21;11.55;;;1.75;;
21270;SDS011;10795;50.796;3.860;2022-10-22T06:08:53;6.85;;;1.60;;
21270;SDS011;10795;50.796;3.860;2022-10-22T06:11:20;5.90;;;1.80;;
21270;SDS011;10795;50.796;3.860;2022-10-22T06:13:47;9.43;;;1.83;;
21270;SDS011;10795;50.796;3.860;2022-10-22T06:16:14;14.82;;;1.83;;
21270;SDS011;10795;50.796;3.860;2022-10-22T06:18:40;12.15;;;2.08;;
21270;SDS011;10795;50.796;3.860;2022-10-22T06:21:06;8.32;;;1.88;;
21270;SDS011;10795;50.796;3.860;2022-10-22T06:23:34;8.07;;;1.38;;
21270;SDS011;10795;50.796;3.860;2022-10-22T06:26:01;6.55;;;1.65;;
21270;SDS011;10795;50.796;3.860;2022-10-22T06:28:28;9.68;;;1.50;;
21270;SDS011;10795;50.796;3.860;2022-10-22T06:30:55;9.38;;;2.10;;
21270;SDS011;10795;50.796;3.860;2022-10-22T06:33:22;5.97;;;1.60;;
21270;SDS011;10795;50.796;3.860;2022-10-22T06:35:47;10.27;;;1.90;;
21270;SDS011;10795;50.796;3.860;2022-10-22T06:38:13;6.57;;;1.40;;
21270;SDS011;10795;50.796;3.860;2022-10-22T06:40:39;10.18;;;1.75;;
21270;SDS011;10795;50.796;3.860;2022-10-22T06:43:08;6.35;;;1.50;;
21270;SDS011;10795;50.796;3.860;2022-10-22T06:45:34;13.02;;;2.72;;
21270;SDS011;10795;50.796;3.860;2022-10-22T06:48:00;5.78;;;1.45;;
21270;SDS011;10795;50.796;3.860;2022-10-22T06:50:26;7.82;;;2.28;;
21270;SDS011;10795;50.796;3.860;2022-10-22T06:52:51;12.68;;;1.50;;
21270;SDS011;10795;50.796;3.860;2022-10-22T06:55:17;8.38;;;1.60;;
21270;SDS011;10795;50.796;3.860;2022-10-22T06:57:43;9.13;;;1.42;;
21270;SDS011;10795;50.796;3.860;2022-10-22T07:00:09;7.20;;;1.95;;
21270;SDS011;10795;50.796;3.860;2022-10-22T07:02:35;13.45;;;2.00;;
21270;SDS011;10795;50.796;3.860;2022-10-22T07:05:00;13.80;;;1.85;;
21270;SDS011;10795;50.796;3.860;2022-10-22T07:07:26;8.10;;;1.63;;
21270;SDS011;10795;50.796;3.860;2022-10-22T07:09:52;13.38;;;1.85;;
21270;SDS011;10795;50.796;3.860;2022-10-22T07:12:18;8.75;;;1.90;;
21270;SDS011;10795;50.796;3.860;2022-10-22T07:14:43;9.60;;;2.10;;
21270;SDS011;10795;50.796;3.860;2022-10-22T07:17:09;7.18;;;1.65;;
21270;SDS011;10795;50.796;3.860;2022-10-22T07:19:35;6.85;;;1.60;;
21270;SDS011;10795;50.796;3.860;2022-10-22T07:22:01;7.10;;;1.35;;
21270;SDS011;10795;50.796;3.860;2022-10-22T07:24:26;8.25;;;2.00;;
21270;SDS011;10795;50.796;3.860;2022-10-22T07:26:52;6.13;;;2.00;;
21270;SDS011;10795;50.796;3.860;2022-10-22T07:29:18;8.57;;;2.15;;
21270;SDS011;10795;50.796;3.860;2022-10-22T07:31:44;9.20;;;1.75;;
21270;SDS011;10795;50.796;3.860;2022-10-22T07:34:10;12.50;;;2.08;;
21270;SDS011;10795;50.796;3.860;2022-10-22T07:36:35;8.00;;;2.08;;
21270;SDS011;10795;50.796;3.860;2022-10-22T07:39:02;13.73;;;2.40;;
21270;SDS011;10795;50.796;3.860;2022-10-22T07:41:28;8.98;;;2.08;;
21270;SDS011;10795;50.796;3.860;2022-10-22T07:43:55;5.80;;;1.65;;
21270;SDS011;10795;50.796;3.860;2022-10-22T07:46:21;12.55;;;2.35;;
21270;SDS011;10795;50.796;3.860;2022-10-22T07:48:47;9.88;;;2.33;;
21270;SDS011;10795;50.796;3.860;2022-10-22T07:51:13;10.02;;;1.80;;
21270;SDS011;10795;50.796;3.860;2022-10-22T07:53:39;11.63;;;1.88;;
21270;SDS011;10795;50.796;3.860;2022-10-22T07:56:05;11.68;;;2.30;;
21270;SDS011;10795;50.796;3.860;2022-10-22T07:58:31;12.30;;;1.52;;
21270;SDS011;10795;50.796;3.860;2022-10-22T08:00:58;9.27;;;1.90;;
21270;SDS011;10795;50.796;3.860;2022-10-22T08:03:25;9.07;;;1.80;;
21270;SDS011;10795;50.796;3.860;2022-10-22T08:05:52;12.38;;;1.83;;
21270;SDS011;10795;50.796;3.860;2022-10-22T08:08:19;11.90;;;1.98;;
21270;SDS011;10795;50.796;3.860;2022-10-22T08:10:46;9.25;;;1.45;;
21270;SDS011;10795;50.796;3.860;2022-10-22T08:13:13;12.70;;;2.45;;
21270;SDS011;10795;50.796;3.860;2022-10-22T08:15:39;8.93;;;2.13;;
21270;SDS011;10795;50.796;3.860;2022-10-22T08:18:07;8.50;;;1.90;;
21270;SDS011;10795;50.796;3.860;2022-10-22T08:20:32;8.43;;;2.83;;
21270;SDS011;10795;50.796;3.860;2022-10-22T08:22:58;7.60;;;1.73;;
21270;SDS011;10795;50.796;3.860;2022-10-22T08:25:24;8.48;;;1.80;;
21270;SDS011;10795;50.796;3.860;2022-10-22T08:27:50;9.65;;;2.05;;
21270;SDS011;10795;50.796;3.860;2022-10-22T08:30:16;17.80;;;1.90;;
21270;SDS011;10795;50.796;3.860;2022-10-22T08:32:42;15.20;;;2.30;;
21270;SDS011;10795;50.796;3.860;2022-10-22T08:35:08;8.02;;;1.85;;
21270;SDS011;10795;50.796;3.860;2022-10-22T08:37:34;10.00;;;1.75;;
21270;SDS011;10795;50.796;3.860;2022-10-22T08:40:00;12.95;;;1.90;;
21270;SDS011;10795;50.796;3.860;2022-10-22T08:45:09;8.45;;;1.40;;
21270;SDS011;10795;50.796;3.860;2022-10-22T08:50:28;10.15;;;1.77;;
21270;SDS011;10795;50.796;3.860;2022-10-22T08:53:11;9.35;;;1.45;;
21270;SDS011;10795;50.796;3.860;2022-10-22T08:55:40;7.10;;;1.95;;
21270;SDS011;10795;50.796;3.860;2022-10-22T09:03:51;8.27;;;1.55;;
21270;SDS011;10795;50.796;3.860;2022-10-22T09:06:27;6.00;;;1.95;;
21270;SDS011;10795;50.796;3.860;2022-10-22T09:08:56;9.98;;;1.65;;
21270;SDS011;10795;50.796;3.860;2022-10-22T09:11:32;8.73;;;1.65;;
21270;SDS011;10795;50.796;3.860;2022-10-22T09:13:59;6.47;;;1.50;;
21270;SDS011;10795;50.796;3.860;2022-10-22T09:21:53;7.35;;;1.60;;
21270;SDS011;10795;50.796;3.860;2022-10-22T09:24:53;6.55;;;1.35;;
21270;SDS011;10795;50.796;3.860;2022-10-22T09:27:29;10.18;;;1.50;;
21270;SDS011;10795;50.796;3.860;2022-10-22T09:29:55;10.38;;;1.80;;
21270;SDS011;10795;50.796;3.860;2022-10-22T09:32:20;13.30;;;1.95;;
21270;SDS011;10795;50.796;3.860;2022-10-22T09:34:47;7.57;;;1.90;;
21270;SDS011;10795;50.796;3.860;2022-10-22T09:37:17;11.23;;;2.85;;
21270;SDS011;10795;50.796;3.860;2022-10-22T09:39:51;10.27;;;2.30;;
21270;SDS011;10795;50.796;3.860;2022-10-22T09:42:19;9.05;;;2.00;;
21270;SDS011;10795;50.796;3.860;2022-10-22T09:45:03;6.22;;;2.13;;
21270;SDS011;10795;50.796;3.860;2022-10-22T09:47:39;5.88;;;1.40;;
21270;SDS011;10795;50.796;3.860;2022-10-22T09:50:09;9.10;;;1.80;;
21270;SDS011;10795;50.796;3.860;2022-10-22T09:52:54;8.80;;;2.45;;
21270;SDS011;10795;50.796;3.860;2022-10-22T09:55:40;7.50;;;1.65;;
21270;SDS011;10795;50.796;3.860;2022-10-22T09:58:07;11.98;;;2.22;;
21270;SDS011;10795;50.796;3.860;2022-10-22T10:00:38;10.23;;;2.30;;
21270;SDS011;10795;50.796;3.860;2022-10-22T10:03:05;10.73;;;1.88;;
21270;SDS011;10795;50.796;3.860;2022-10-22T10:05:32;10.85;;;1.70;;
21270;SDS011;10795;50.796;3.860;2022-10-22T10:08:06;6.03;;;1.38;;
21270;SDS011;10795;50.796;3.860;2022-10-22T10:21:04;10.70;;;1.70;;
21270;SDS011;10795;50.796;3.860;2022-10-22T10:34:23;8.57;;;2.50;;
21270;SDS011;10795;50.796;3.860;2022-10-22T10:56:59;8.43;;;2.50;;
21270;SDS011;10795;50.796;3.860;2022-10-22T11:05:21;6.72;;;1.45;;
21270;SDS011;10795;50.796;3.860;2022-10-22T11:07:51;8.40;;;1.17;;
21270;SDS011;10795;50.796;3.860;2022-10-22T11:10:29;8.73;;;1.48;;
21270;SDS011;10795;50.796;3.860;2022-10-22T11:13:01;7.45;;;1.45;;
21270;SDS011;10795;50.796;3.860;2022-10-22T11:15:36;5.72;;;1.90;;
21270;SDS011;10795;50.796;3.860;2022-10-22T11:18:51;5.72;;;1.40;;
21270;SDS011;10795;50.796;3.860;2022-10-22T11:21:01;6.45;;;1.45;;
21270;SDS011;10795;50.796;3.860;2022-10-22T11:23:44;8.57;;;1.23;;
21270;SDS011;10795;50.796;3.860;2022-10-22T11:26:39;3.80;;;1.40;;
21270;SDS011;10795;50.796;3.860;2022-10-22T11:29:12;4.03;;;1.13;;
21270;SDS011;10795;50.796;3.860;2022-10-22T11:31:45;3.00;;;0.95;;
21270;SDS011;10795;50.796;3.860;2022-10-22T11:34:15;3.72;;;0.90;;
21270;SDS011;10795;50.796;3.860;2022-10-22T11:36:46;6.47;;;1.13;;
21270;SDS011;10795;50.796;3.860;2022-10-22T11:39:48;6.05;;;1.30;;
21270;SDS011;10795;50.796;3.860;2022-10-22T11:42:17;3.72;;;1.02;;
21270;SDS011;10795;50.796;3.860;2022-10-22T11:44:57;6.68;;;1.60;;
21270;SDS011;10795;50.796;3.860;2022-10-22T11:47:31;8.23;;;2.08;;
21270;SDS011;10795;50.796;3.860;2022-10-22T11:52:26;4.85;;;1.67;;
21270;SDS011;10795;50.796;3.860;2022-10-22T11:54:55;9.88;;;1.63;;
21270;SDS011;10795;50.796;3.860;2022-10-22T11:57:26;5.60;;;1.50;;
21270;SDS011;10795;50.796;3.860;2022-10-22T11:59:58;4.07;;;1.40;;
21270;SDS011;10795;50.796;3.860;2022-10-22T12:10:35;6.32;;;1.13;;
21270;SDS011;10795;50.796;3.860;2022-10-22T12:13:19;4.38;;;1.30;;
21270;SDS011;10795;50.796;3.860;2022-10-22T12:15:52;7.55;;;1.50;;
21270;SDS011;10795;50.796;3.860;2022-10-22T12:18:22;4.60;;;1.65;;
21270;SDS011;10795;50.796;3.860;2022-10-22T12:20:57;5.53;;;1.42;;
21270;SDS011;10795;50.796;3.860;2022-10-22T12:23:30;6.72;;;1.25;;
21270;SDS011;10795;50.796;3.860;2022-10-22T12:25:58;4.95;;;1.00;;
21270;SDS011;10795;50.796;3.860;2022-10-22T12:28:24;4.97;;;1.20;;
21270;SDS011;10795;50.796;3.860;2022-10-22T12:30:50;5.30;;;1.23;;
21270;SDS011;10795;50.796;3.860;2022-10-22T12:33:17;3.97;;;0.77;;
21270;SDS011;10795;50.796;3.860;2022-10-22T12:35:47;5.15;;;1.20;;
21270;SDS011;10795;50.796;3.860;2022-10-22T12:38:18;7.32;;;1.40;;
21270;SDS011;10795;50.796;3.860;2022-10-22T12:40:46;7.85;;;1.27;;
21270;SDS011;10795;50.796;3.860;2022-10-22T12:43:27;3.38;;;1.00;;
21270;SDS011;10795;50.796;3.860;2022-10-22T12:45:54;5.32;;;1.20;;
21270;SDS011;10795;50.796;3.860;2022-10-22T12:48:28;6.25;;;1.05;;
21270;SDS011;10795;50.796;3.860;2022-10-22T12:50:59;6.70;;;1.33;;
21270;SDS011;10795;50.796;3.860;2022-10-22T12:53:33;5.63;;;1.10;;
21270;SDS011;10795;50.796;3.860;2022-10-22T12:56:12;5.45;;;1.30;;
21270;SDS011;10795;50.796;3.860;2022-10-22T12:58:41;6.10;;;1.13;;
21270;SDS011;10795;50.796;3.860;2022-10-22T13:01:11;6.47;;;0.85;;
21270;SDS011;10795;50.796;3.860;2022-10-22T13:03:40;6.40;;;1.15;;
21270;SDS011;10795;50.796;3.860;2022-10-22T13:08:44;7.13;;;1.30;;
21270;SDS011;10795;50.796;3.860;2022-10-22T13:14:33;7.30;;;1.00;;
21270;SDS011;10795;50.796;3.860;2022-10-22T13:22:04;8.20;;;1.35;;
21270;SDS011;10795;50.796;3.860;2022-10-22T13:24:48;10.02;;;1.27;;
21270;SDS011;10795;50.796;3.860;2022-10-22T13:27:15;4.20;;;0.90;;
21270;SDS011;10795;50.796;3.860;2022-10-22T13:29:41;6.53;;;1.33;;
21270;SDS011;10795;50.796;3.860;2022-10-22T13:35:05;3.35;;;0.90;;
21270;SDS011;10795;50.796;3.860;2022-10-22T13:37:33;7.05;;;1.45;;
21270;SDS011;10795;50.796;3.860;2022-10-22T13:40:04;5.28;;;1.23;;
21270;SDS011;10795;50.796;3.860;2022-10-22T13:42:35;6.95;;;1.15;;
21270;SDS011;10795;50.796;3.860;2022-10-22T13:45:03;5.18;;;1.10;;
21270;SDS011;10795;50.796;3.860;2022-10-22T13:47:30;11.00;;;1.25;;
21270;SDS011;10795;50.796;3.860;2022-10-22T13:50:00;6.20;;;1.23;;
21270;SDS011;10795;50.796;3.860;2022-10-22T13:52:35;4.40;;;1.33;;
21270;SDS011;10795;50.796;3.860;2022-10-22T13:55:15;5.80;;;1.00;;
21270;SDS011;10795;50.796;3.860;2022-10-22T13:57:45;6.53;;;1.08;;
21270;SDS011;10795;50.796;3.860;2022-10-22T14:00:21;4.88;;;1.50;;
21270;SDS011;10795;50.796;3.860;2022-10-22T14:02:48;4.10;;;1.10;;
21270;SDS011;10795;50.796;3.860;2022-10-22T14:07:43;6.35;;;1.20;;
21270;SDS011;10795;50.796;3.860;2022-10-22T14:10:14;4.10;;;0.80;;
21270;SDS011;10795;50.796;3.860;2022-10-22T14:12:44;5.70;;;1.35;;
21270;SDS011;10795;50.796;3.860;2022-10-22T14:15:11;4.22;;;0.93;;
21270;SDS011;10795;50.796;3.860;2022-10-22T14:17:39;4.97;;;1.30;;
21270;SDS011;10795;50.796;3.860;2022-10-22T14:20:15;8.65;;;1.38;;
21270;SDS011;10795;50.796;3.860;2022-10-22T14:22:48;5.75;;;1.17;;
21270;SDS011;10795;50.796;3.860;2022-10-22T14:25:16;5.95;;;1.02;;
21270;SDS011;10795;50.796;3.860;2022-10-22T14:27:46;11.50;;;1.40;;
21270;SDS011;10795;50.796;3.860;2022-10-22T14:30:13;4.40;;;1.00;;
21270;SDS011;10795;50.796;3.860;2022-10-22T14:32:40;5.25;;;1.10;;
21270;SDS011;10795;50.796;3.860;2022-10-22T14:35:08;4.47;;;1.20;;
21270;SDS011;10795;50.796;3.860;2022-10-22T14:37:36;5.32;;;1.40;;
21270;SDS011;10795;50.796;3.860;2022-10-22T14:40:02;7.38;;;1.40;;
21270;SDS011;10795;50.796;3.860;2022-10-22T14:42:28;7.30;;;1.67;;
21270;SDS011;10795;50.796;3.860;2022-10-22T14:44:54;6.63;;;1.20;;
21270;SDS011;10795;50.796;3.860;2022-10-22T14:47:19;10.13;;;1.10;;
21270;SDS011;10795;50.796;3.860;2022-10-22T14:49:45;6.50;;;1.23;;
21270;SDS011;10795;50.796;3.860;2022-10-22T14:52:11;6.85;;;1.40;;
21270;SDS011;10795;50.796;3.860;2022-10-22T14:54:37;5.85;;;2.10;;
21270;SDS011;10795;50.796;3.860;2022-10-22T14:57:03;4.10;;;1.13;;
21270;SDS011;10795;50.796;3.860;2022-10-22T14:59:29;5.38;;;1.33;;
21270;SDS011;10795;50.796;3.860;2022-10-22T15:01:55;4.55;;;0.90;;
21270;SDS011;10795;50.796;3.860;2022-10-22T15:04:21;7.57;;;1.10;;
21270;SDS011;10795;50.796;3.860;2022-10-22T15:06:50;3.67;;;0.73;;
21270;SDS011;10795;50.796;3.860;2022-10-22T15:09:20;6.53;;;1.00;;
21270;SDS011;10795;50.796;3.860;2022-10-22T15:11:47;2.10;;;0.70;;
21270;SDS011;10795;50.796;3.860;2022-10-22T15:14:13;3.47;;;0.70;;
21270;SDS011;10795;50.796;3.860;2022-10-22T15:16:39;10.25;;;1.38;;
21270;SDS011;10795;50.796;3.860;2022-10-22T15:19:05;1.33;;;0.60;;
21270;SDS011;10795;50.796;3.860;2022-10-22T15:21:31;8.52;;;0.98;;
21270;SDS011;10795;50.796;3.860;2022-10-22T15:23:57;3.03;;;0.63;;
21270;SDS011;10795;50.796;3.860;2022-10-22T15:26:22;5.05;;;0.93;;
21270;SDS011;10795;50.796;3.860;2022-10-22T15:28:48;3.58;;;0.75;;
21270;SDS011;10795;50.796;3.860;2022-10-22T15:31:14;7.03;;;1.77;;
21270;SDS011;10795;50.796;3.860;2022-10-22T15:33:40;5.53;;;1.17;;
21270;SDS011;10795;50.796;3.860;2022-10-22T15:36:08;4.00;;;0.95;;
21270;SDS011;10795;50.796;3.860;2022-10-22T15:38:35;5.45;;;1.30;;
21270;SDS011;10795;50.796;3.860;2022-10-22T15:41:02;3.72;;;0.82;;
21270;SDS011;10795;50.796;3.860;2022-10-22T15:43:29;4.47;;;1.10;;
21270;SDS011;10795;50.796;3.860;2022-10-22T15:46:17;2.88;;;1.10;;
21270;SDS011;10795;50.796;3.860;2022-10-22T15:48:43;1.63;;;0.82;;
21270;SDS011;10795;50.796;3.860;2022-10-22T15:51:14;4.72;;;1.17;;
21270;SDS011;10795;50.796;3.860;2022-10-22T15:53:41;3.92;;;1.00;;
21270;SDS011;10795;50.796;3.860;2022-10-22T15:56:08;1.92;;;0.85;;
21270;SDS011;10795;50.796;3.860;2022-10-22T15:58:35;8.32;;;1.73;;
21270;SDS011;10795;50.796;3.860;2022-10-22T16:01:05;10.52;;;1.63;;
21270;SDS011;10795;50.796;3.860;2022-10-22T16:03:32;6.82;;;1.48;;
21270;SDS011;10795;50.796;3.860;2022-10-22T16:05:58;6.32;;;1.17;;
21270;SDS011;10795;50.796;3.860;2022-10-22T16:08:24;5.57;;;1.05;;
21270;SDS011;10795;50.796;3.860;2022-10-22T16:10:51;3.63;;;1.00;;
21270;SDS011;10795;50.796;3.860;2022-10-22T16:13:17;3.03;;;1.02;;
21270;SDS011;10795;50.796;3.860;2022-10-22T16:15:45;8.27;;;1.75;;
21270;SDS011;10795;50.796;3.860;2022-10-22T16:18:12;1.55;;;0.75;;
21270;SDS011;10795;50.796;3.860;2022-10-22T16:20:38;5.05;;;1.27;;
21270;SDS011;10795;50.796;3.860;2022-10-22T16:23:04;3.78;;;0.85;;
21270;SDS011;10795;50.796;3.860;2022-10-22T16:25:30;4.00;;;1.00;;
21270;SDS011;10795;50.796;3.860;2022-10-22T16:28:04;3.15;;;1.10;;
21270;SDS011;10795;50.796;3.860;2022-10-22T16:30:34;6.75;;;1.70;;
21270;SDS011;10795;50.796;3.860;2022-10-22T16:35:26;7.05;;;1.40;;
21270;SDS011;10795;50.796;3.860;2022-10-22T16:37:53;4.38;;;1.25;;
21270;SDS011;10795;50.796;3.860;2022-10-22T16:40:18;7.57;;;2.10;;
21270;SDS011;10795;50.796;3.860;2022-10-22T16:42:44;3.72;;;0.80;;
21270;SDS011;10795;50.796;3.860;2022-10-22T16:45:10;6.38;;;1.58;;
21270;SDS011;10795;50.796;3.860;2022-10-22T16:47:36;3.80;;;1.75;;
21270;SDS011;10795;50.796;3.860;2022-10-22T16:50:03;6.45;;;2.08;;
21270;SDS011;10795;50.796;3.860;2022-10-22T16:52:29;4.25;;;0.90;;